Time;durP1;ratioP1;P1;durP2;ratioP2;P2;SDS_P1;SDS_P2;PMS_P1;PMS_P2;Temp;Humidity;BMP_temperature;BMP_pressure;BME280_temperature;BME280_humidity;BME280_pressure;Samples;Min_cycle;Max_cycle;Signal;HPM_P1;HPM_P2
2022/05/08 00:01:04;;;;;;;;;;;14.70;99.90;;;;;;4966936;28;19934;-78
2022/05/08 00:03:35;;;;;;;;;;;14.70;99.90;;;;;;4978185;28;19988;-78
2022/05/08 00:06:10;;;;;;;;;;;14.70;99.90;;;;;;4983146;28;19933;-78
2022/05/08 00:08:40;;;;;;;;;;;14.60;99.90;;;;;;4982671;28;19933;-78
2022/05/08 00:11:12;;;;;;;;;;;14.60;99.90;;;;;;4964833;28;19926;-78
2022/05/08 00:13:39;;;;;;;;;;;14.60;99.90;;;;;;4969591;28;20382;-77
2022/05/08 00:16:07;;;;;;;;;;;14.60;99.90;;;;;;4979521;28;19926;-78
2022/05/08 00:18:35;;;;;;;;;;;14.60;99.90;;;;;;4983925;28;20047;-78
2022/05/08 00:21:02;;;;;;;;;;;14.60;99.90;;;;;;4961651;28;20327;-78
2022/05/08 00:23:30;;;;;;;;;;;14.50;99.90;;;;;;4964177;28;20436;-78
2022/05/08 00:25:57;;;;;;;;;;;14.50;99.90;;;;;;4974244;28;19936;-78
2022/05/08 00:28:25;;;;;;;;;;;14.50;99.90;;;;;;4977523;28;19948;-78
2022/05/08 00:30:52;;;;;;;;;;;14.50;99.90;;;;;;4978341;28;20004;-79
2022/05/08 00:33:19;;;;;;;;;;;14.40;99.90;;;;;;4973861;28;19930;-78
2022/05/08 00:35:47;;;;;;;;;;;14.50;99.90;;;;;;4956589;28;20357;-79
2022/05/08 00:38:14;;;;;;;;;;;14.40;99.90;;;;;;4978590;28;20388;-78
2022/05/08 00:40:41;;;;;;;;;;;14.40;99.90;;;;;;4982034;28;20348;-78
2022/05/08 00:43:32;;;;;;;;;;;14.40;99.90;;;;;;4983637;28;19926;-78
2022/05/08 00:46:00;;;;;;;;;;;14.40;99.90;;;;;;4987229;28;19961;-78
2022/05/08 00:48:28;;;;;;;;;;;14.30;99.90;;;;;;4979088;28;20052;-79
2022/05/08 00:50:57;;;;;;;;;;;14.30;99.90;;;;;;4976273;28;20072;-79
2022/05/08 00:53:27;;;;;;;;;;;14.30;99.90;;;;;;4956780;28;19926;-78
2022/05/08 00:55:56;;;;;;;;;;;14.30;99.90;;;;;;4975215;28;20007;-78
2022/05/08 00:58:24;;;;;;;;;;;14.30;99.90;;;;;;4975451;28;19926;-78
2022/05/08 01:00:51;;;;;;;;;;;14.20;99.90;;;;;;4978921;28;19961;-78
2022/05/08 01:03:20;;;;;;;;;;;14.20;99.90;;;;;;4983145;28;19925;-78
2022/05/08 01:05:50;;;;;;;;;;;14.20;99.90;;;;;;4985602;28;19961;-78
2022/05/08 01:08:22;;;;;;;;;;;14.20;99.90;;;;;;4979434;28;19926;-78
2022/05/08 01:10:49;;;;;;;;;;;14.20;99.90;;;;;;4978828;28;20017;-78
2022/05/08 01:13:16;;;;;;;;;;;14.10;99.90;;;;;;4970806;28;20017;-78
2022/05/08 01:15:44;;;;;;;;;;;14.10;99.90;;;;;;4975007;28;20398;-79
2022/05/08 01:18:13;;;;;;;;;;;14.10;99.90;;;;;;4959227;28;20025;-79
2022/05/08 01:20:40;;;;;;;;;;;14.10;99.90;;;;;;4976543;28;19936;-79
2022/05/08 01:23:09;;;;;;;;;;;14.10;99.90;;;;;;4976405;28;19925;-78
2022/05/08 01:25:44;;;;;;;;;;;14.10;99.90;;;;;;4983165;28;19969;-78
2022/05/08 01:28:12;;;;;;;;;;;14.00;99.90;;;;;;4976190;28;20036;-78
2022/05/08 01:30:40;;;;;;;;;;;14.00;99.90;;;;;;4959413;28;19934;-79
2022/05/08 01:33:08;;;;;;;;;;;14.00;99.90;;;;;;4984129;28;19930;-78
2022/05/08 01:35:35;;;;;;;;;;;14.00;99.90;;;;;;4977705;28;19930;-78
2022/05/08 01:38:02;;;;;;;;;;;14.00;99.90;;;;;;4983074;28;20919;-78
2022/05/08 01:40:31;;;;;;;;;;;14.00;99.90;;;;;;4961817;28;19926;-78
2022/05/08 01:43:00;;;;;;;;;;;13.90;99.90;;;;;;4975740;28;19934;-78
2022/05/08 01:45:27;;;;;;;;;;;13.90;99.90;;;;;;4975347;28;19926;-78
2022/05/08 01:50:40;;;;;;;;;;;13.90;99.90;;;;;;4979315;28;19989;-77
2022/05/08 01:53:07;;;;;;;;;;;13.90;99.90;;;;;;4966496;28;19930;-78
2022/05/08 01:55:36;;;;;;;;;;;13.80;99.90;;;;;;4985354;28;19933;-78
2022/05/08 01:58:04;;;;;;;;;;;13.80;99.90;;;;;;4985969;28;20028;-78
2022/05/08 02:00:32;;;;;;;;;;;13.80;99.90;;;;;;4969853;28;19933;-78
2022/05/08 02:03:00;;;;;;;;;;;13.80;99.90;;;;;;4979580;28;19926;-78
2022/05/08 02:05:29;;;;;;;;;;;13.80;99.90;;;;;;4979251;28;19952;-78
2022/05/08 02:07:57;;;;;;;;;;;13.80;99.90;;;;;;4987964;28;19925;-78
2022/05/08 02:10:24;;;;;;;;;;;13.70;99.90;;;;;;4972382;28;20669;-78
2022/05/08 02:12:53;;;;;;;;;;;13.70;99.90;;;;;;4964957;28;19948;-78
2022/05/08 02:15:24;;;;;;;;;;;13.70;99.90;;;;;;4989099;28;19932;-78
2022/05/08 02:17:51;;;;;;;;;;;13.70;99.90;;;;;;4968693;28;19934;-78
2022/05/08 02:20:19;;;;;;;;;;;13.70;99.90;;;;;;4979397;28;19930;-78
2022/05/08 02:22:46;;;;;;;;;;;13.70;99.90;;;;;;4959384;28;20299;-78
2022/05/08 02:25:13;;;;;;;;;;;13.60;99.90;;;;;;4981862;28;19941;-79
2022/05/08 02:27:42;;;;;;;;;;;13.60;99.90;;;;;;4992822;28;20034;-78
2022/05/08 02:30:11;;;;;;;;;;;13.60;99.90;;;;;;4978823;28;20285;-78
2022/05/08 02:32:39;;;;;;;;;;;13.60;99.90;;;;;;4980754;28;19992;-78
2022/05/08 02:35:07;;;;;;;;;;;13.60;99.90;;;;;;4983507;28;19933;-79
2022/05/08 02:37:34;;;;;;;;;;;13.60;99.90;;;;;;4965235;28;19934;-78
2022/05/08 02:40:01;;;;;;;;;;;13.50;99.90;;;;;;4980562;28;19930;-78
2022/05/08 02:42:29;;;;;;;;;;;13.50;99.90;;;;;;4971038;28;19933;-78
2022/05/08 02:44:56;;;;;;;;;;;13.50;99.90;;;;;;4978446;28;19940;-78
2022/05/08 02:47:24;;;;;;;;;;;13.50;99.90;;;;;;4962700;28;19989;-78
2022/05/08 02:49:52;;;;;;;;;;;13.50;99.90;;;;;;4988186;28;20011;-78
2022/05/08 02:52:19;;;;;;;;;;;13.50;99.90;;;;;;4986126;28;19926;-78
2022/05/08 02:54:46;;;;;;;;;;;13.40;99.90;;;;;;4967234;28;21114;-79
2022/05/08 03:00:02;;;;;;;;;;;13.40;99.90;;;;;;4982089;28;19928;-77
2022/05/08 03:02:33;;;;;;;;;;;13.40;99.90;;;;;;4976475;28;20384;-78
2022/05/08 03:05:00;;;;;;;;;;;13.40;99.90;;;;;;4965386;28;19932;-78
2022/05/08 03:07:29;;;;;;;;;;;13.30;99.90;;;;;;4958027;28;19933;-78
2022/05/08 03:09:56;;;;;;;;;;;13.40;99.90;;;;;;4985980;28;19925;-78
2022/05/08 03:12:23;;;;;;;;;;;13.30;99.90;;;;;;4963942;28;19965;-78
2022/05/08 03:14:51;;;;;;;;;;;13.30;99.90;;;;;;4977971;28;19961;-78
2022/05/08 03:17:19;;;;;;;;;;;13.30;99.90;;;;;;4978947;28;19925;-78
2022/05/08 03:19:47;;;;;;;;;;;13.30;99.90;;;;;;4975099;28;20005;-78
2022/05/08 03:22:15;;;;;;;;;;;13.30;99.90;;;;;;4977363;28;19926;-78
2022/05/08 03:24:42;;;;;;;;;;;13.30;99.90;;;;;;4977642;28;19926;-78
2022/05/08 03:27:09;;;;;;;;;;;13.20;99.90;;;;;;4967358;28;20392;-78
2022/05/08 03:29:36;;;;;;;;;;;13.20;99.90;;;;;;4960949;28;19930;-79
2022/05/08 03:32:03;;;;;;;;;;;13.20;99.90;;;;;;4974861;28;20052;-78
2022/05/08 03:34:31;;;;;;;;;;;13.20;99.90;;;;;;4978448;28;19926;-78
2022/05/08 03:37:00;;;;;;;;;;;13.20;99.90;;;;;;4975098;28;19940;-78
2022/05/08 03:39:28;;;;;;;;;;;13.20;99.90;;;;;;4981685;28;20008;-78
2022/05/08 03:41:55;;;;;;;;;;;13.20;99.90;;;;;;4962813;28;20392;-78
2022/05/08 03:44:21;;;;;;;;;;;13.20;99.90;;;;;;4971353;28;19934;-78
2022/05/08 03:46:48;;;;;;;;;;;13.10;99.90;;;;;;4977326;28;19961;-78
2022/05/08 03:49:15;;;;;;;;;;;13.10;99.90;;;;;;4980388;28;19932;-78
2022/05/08 03:51:43;;;;;;;;;;;13.10;99.90;;;;;;4978786;28;19926;-79
2022/05/08 03:54:11;;;;;;;;;;;13.10;99.90;;;;;;4985375;28;19925;-78
2022/05/08 03:56:38;;;;;;;;;;;13.00;99.90;;;;;;4984022;28;19926;-77
2022/05/08 03:59:05;;;;;;;;;;;13.10;99.90;;;;;;4962570;28;19933;-78
2022/05/08 04:01:32;;;;;;;;;;;13.00;99.90;;;;;;4976617;28;19934;-78
2022/05/08 04:04:01;;;;;;;;;;;13.00;99.90;;;;;;4963772;28;19954;-78
2022/05/08 04:06:30;;;;;;;;;;;13.00;99.90;;;;;;4983781;28;19949;-78
2022/05/08 04:08:56;;;;;;;;;;;13.00;99.90;;;;;;4981013;28;20356;-79
2022/05/08 04:11:29;;;;;;;;;;;13.00;99.90;;;;;;4969723;28;19932;-79
2022/05/08 04:13:56;;;;;;;;;;;13.00;99.90;;;;;;4981173;28;19933;-78
2022/05/08 04:16:24;;;;;;;;;;;13.00;99.90;;;;;;4989460;28;19937;-79
2022/05/08 04:18:51;;;;;;;;;;;13.00;99.90;;;;;;4978540;28;19937;-79
2022/05/08 04:31:54;;;;;;;;;;;12.90;99.90;;;;;;5981119;23;19945;-80
2022/05/08 04:34:24;;;;;;;;;;;12.80;99.90;;;;;;5005970;28;19925;-80
2022/05/08 04:36:51;;;;;;;;;;;12.90;99.90;;;;;;4988166;28;19926;-80
2022/05/08 04:39:18;;;;;;;;;;;12.80;99.90;;;;;;5008229;28;19932;-80
2022/05/08 04:41:46;;;;;;;;;;;12.80;99.90;;;;;;4992427;28;19976;-81
2022/05/08 04:44:13;;;;;;;;;;;12.80;99.90;;;;;;4998032;28;19933;-80
2022/05/08 04:46:40;;;;;;;;;;;12.80;99.90;;;;;;4999907;28;19941;-80
2022/05/08 04:49:11;;;;;;;;;;;12.80;99.90;;;;;;4987576;28;19965;-80
2022/05/08 04:51:40;;;;;;;;;;;12.80;99.90;;;;;;4996099;28;20024;-80
2022/05/08 04:54:07;;;;;;;;;;;12.70;99.90;;;;;;4993555;28;19932;-80
2022/05/08 04:56:37;;;;;;;;;;;12.70;99.90;;;;;;4993307;28;20340;-80
2022/05/08 04:59:07;;;;;;;;;;;12.80;99.90;;;;;;4994493;28;19957;-80
2022/05/08 05:28:07;;;;;;;;;;;12.60;99.90;;;;;;5052885;23;19980;-82
2022/05/08 05:30:34;;;;;;;;;;;12.60;99.90;;;;;;5014571;28;19976;-80
2022/05/08 05:33:01;;;;;;;;;;;12.60;99.90;;;;;;5017602;28;20415;-80
2022/05/08 05:35:32;;;;;;;;;;;12.60;99.90;;;;;;5006429;28;20358;-79
2022/05/08 05:38:02;;;;;;;;;;;12.60;99.90;;;;;;5016700;28;20019;-80
2022/05/08 05:40:29;;;;;;;;;;;12.60;99.90;;;;;;5015951;28;19925;-80
2022/05/08 05:42:57;;;;;;;;;;;12.60;99.90;;;;;;5000975;28;20379;-80
2022/05/08 05:45:29;;;;;;;;;;;12.50;99.90;;;;;;5016750;28;19933;-80
2022/05/08 05:47:59;;;;;;;;;;;12.60;99.90;;;;;;5016077;28;19961;-80
2022/05/08 05:50:27;;;;;;;;;;;12.60;99.90;;;;;;5012929;28;19925;-80
2022/05/08 05:52:54;;;;;;;;;;;12.50;99.90;;;;;;5016386;28;19930;-80
2022/05/08 05:55:21;;;;;;;;;;;12.50;99.90;;;;;;5014803;28;20016;-80
2022/05/08 05:57:48;;;;;;;;;;;12.60;99.90;;;;;;5025447;28;19934;-80
2022/05/08 06:00:17;;;;;;;;;;;12.50;99.90;;;;;;5020792;28;20311;-80
2022/05/08 06:02:48;;;;;;;;;;;12.60;99.90;;;;;;5018551;28;19926;-80
2022/05/08 06:05:15;;;;;;;;;;;12.50;99.90;;;;;;5024043;28;20398;-80
2022/05/08 06:07:45;;;;;;;;;;;12.60;99.90;;;;;;5016887;28;19929;-80
2022/05/08 06:10:14;;;;;;;;;;;12.50;99.90;;;;;;5007411;28;19956;-80
2022/05/08 06:12:44;;;;;;;;;;;12.50;99.90;;;;;;5017020;28;19933;-80
2022/05/08 06:27:45;;;;;;;;;;;12.50;99.90;;;;;;4975330;28;20013;-80
2022/05/08 06:30:12;;;;;;;;;;;12.50;99.90;;;;;;4993965;28;19933;-80
2022/05/08 06:32:39;;;;;;;;;;;12.50;99.90;;;;;;5011477;28;20016;-80
2022/05/08 06:35:06;;;;;;;;;;;12.50;99.90;;;;;;4987421;28;19929;-80
2022/05/08 06:37:33;;;;;;;;;;;12.50;99.90;;;;;;5013480;28;19926;-80
2022/05/08 06:40:00;;;;;;;;;;;12.50;99.90;;;;;;4985948;28;19929;-82
2022/05/08 06:42:28;;;;;;;;;;;12.50;99.90;;;;;;4996455;28;20253;-80
2022/05/08 06:45:03;;;;;;;;;;;12.50;99.90;;;;;;4987809;28;20749;-79
2022/05/08 06:47:30;;;;;;;;;;;12.50;99.90;;;;;;4992674;28;20012;-80
2022/05/08 06:49:57;;;;;;;;;;;12.60;99.90;;;;;;4985708;28;19941;-80
2022/05/08 06:52:24;;;;;;;;;;;12.60;99.90;;;;;;4991490;28;19926;-80
2022/05/08 06:54:51;;;;;;;;;;;12.60;99.90;;;;;;5007843;28;19931;-80
2022/05/08 06:57:18;;;;;;;;;;;12.60;99.90;;;;;;4990895;28;19933;-80
2022/05/08 07:02:30;;;;;;;;;;;12.60;99.90;;;;;;4997881;28;19925;-79
2022/05/08 07:04:59;;;;;;;;;;;12.60;99.90;;;;;;4983822;28;20088;-80
2022/05/08 07:07:26;;;;;;;;;;;12.60;99.90;;;;;;4982890;28;20428;-79
2022/05/08 07:09:53;;;;;;;;;;;12.70;99.90;;;;;;5007764;28;20060;-78
2022/05/08 07:12:20;;;;;;;;;;;12.70;99.90;;;;;;4991451;28;19929;-78
2022/05/08 07:14:47;;;;;;;;;;;12.70;99.90;;;;;;5010063;28;19925;-78
2022/05/08 07:17:19;;;;;;;;;;;12.70;99.90;;;;;;5005658;28;19933;-78
2022/05/08 07:19:47;;;;;;;;;;;12.70;99.90;;;;;;4975891;28;20012;-79
2022/05/08 07:22:16;;;;;;;;;;;12.80;99.90;;;;;;4999548;28;19930;-79
2022/05/08 07:24:43;;;;;;;;;;;12.80;99.90;;;;;;5003378;28;19933;-79
2022/05/08 07:27:11;;;;;;;;;;;12.80;99.90;;;;;;5011370;28;19958;-79
2022/05/08 07:29:38;;;;;;;;;;;12.80;99.90;;;;;;4996453;28;19940;-78
2022/05/08 07:32:05;;;;;;;;;;;12.80;99.90;;;;;;4988176;28;19930;-78
2022/05/08 07:37:21;;;;;;;;;;;12.90;99.90;;;;;;4982379;28;19953;-78
2022/05/08 07:39:48;;;;;;;;;;;12.90;99.90;;;;;;4988039;28;19930;-78
2022/05/08 07:42:15;;;;;;;;;;;12.90;99.90;;;;;;4985139;28;20557;-77
2022/05/08 07:44:42;;;;;;;;;;;12.90;99.90;;;;;;4980780;28;19960;-78
2022/05/08 07:47:09;;;;;;;;;;;12.90;99.90;;;;;;5001876;28;19935;-78
2022/05/08 07:49:36;;;;;;;;;;;13.00;99.90;;;;;;4993659;28;19930;-78
2022/05/08 07:52:03;;;;;;;;;;;13.00;99.90;;;;;;4983233;28;20344;-80
2022/05/08 07:54:31;;;;;;;;;;;13.00;99.90;;;;;;5006302;28;19934;-79
2022/05/08 07:56:58;;;;;;;;;;;13.00;99.90;;;;;;4986042;28;19976;-81
2022/05/08 07:59:25;;;;;;;;;;;13.00;99.90;;;;;;5003054;28;19941;-81
2022/05/08 08:01:52;;;;;;;;;;;13.10;99.90;;;;;;4978657;28;19926;-82
2022/05/08 08:04:19;;;;;;;;;;;13.10;99.90;;;;;;4999330;28;20296;-80
2022/05/08 08:06:46;;;;;;;;;;;13.10;99.90;;;;;;5001397;28;19925;-80
2022/05/08 08:09:13;;;;;;;;;;;13.10;99.90;;;;;;4984473;28;19926;-77
2022/05/08 08:11:42;;;;;;;;;;;13.10;99.90;;;;;;5000387;28;19944;-81
2022/05/08 08:14:09;;;;;;;;;;;13.20;99.90;;;;;;5004628;28;19925;-82
2022/05/08 08:16:37;;;;;;;;;;;13.20;99.90;;;;;;4996892;28;20358;-80
2022/05/08 08:19:04;;;;;;;;;;;13.20;99.90;;;;;;4999522;28;19940;-79
2022/05/08 08:21:31;;;;;;;;;;;13.30;99.90;;;;;;4995787;28;19964;-81
2022/05/08 08:23:58;;;;;;;;;;;13.30;99.90;;;;;;4981079;28;20311;-80
2022/05/08 08:26:25;;;;;;;;;;;13.30;99.90;;;;;;4972626;28;19957;-80
2022/05/08 08:28:54;;;;;;;;;;;13.30;99.90;;;;;;4990478;28;20492;-80
2022/05/08 08:31:21;;;;;;;;;;;13.30;99.90;;;;;;4977294;28;19936;-80
2022/05/08 08:33:49;;;;;;;;;;;13.30;99.90;;;;;;4996631;28;19937;-80
2022/05/08 08:36:16;;;;;;;;;;;13.40;99.90;;;;;;4995495;28;19926;-80
2022/05/08 08:38:43;;;;;;;;;;;13.40;99.90;;;;;;4995269;28;20070;-80
2022/05/08 08:41:10;;;;;;;;;;;13.40;99.90;;;;;;4997750;28;19941;-80
2022/05/08 08:49:09;;;;;;;;;;;13.40;99.90;;;;;;4978688;28;19938;-80
2022/05/08 08:51:36;;;;;;;;;;;13.50;99.90;;;;;;5000907;28;19936;-80
2022/05/08 08:54:04;;;;;;;;;;;13.50;99.90;;;;;;5004072;28;19988;-80
2022/05/08 08:56:32;;;;;;;;;;;13.50;99.90;;;;;;4995985;28;19960;-83
2022/05/08 08:58:59;;;;;;;;;;;13.60;99.90;;;;;;4995374;28;20292;-81
2022/05/08 09:01:27;;;;;;;;;;;13.60;99.90;;;;;;4995349;28;20285;-81
2022/05/08 09:03:56;;;;;;;;;;;13.60;99.90;;;;;;4987844;28;20007;-81
2022/05/08 09:06:24;;;;;;;;;;;13.60;99.90;;;;;;4998643;28;20226;-82
2022/05/08 09:08:51;;;;;;;;;;;13.60;99.90;;;;;;4984470;28;19985;-79
2022/05/08 09:11:32;;;;;;;;;;;13.60;99.90;;;;;;4987298;28;19929;-79
2022/05/08 09:13:59;;;;;;;;;;;13.60;99.90;;;;;;4996463;28;19929;-82
2022/05/08 09:16:27;;;;;;;;;;;13.70;99.90;;;;;;5003462;28;20024;-81
2022/05/08 09:18:54;;;;;;;;;;;13.70;99.90;;;;;;4988837;28;20020;-80
2022/05/08 09:24:09;;;;;;;;;;;13.70;99.90;;;;;;4993296;28;19925;-79
2022/05/08 09:26:38;;;;;;;;;;;13.70;99.90;;;;;;4981908;28;20319;-80
2022/05/08 09:29:05;;;;;;;;;;;13.80;99.90;;;;;;4991272;28;19933;-80
2022/05/08 09:31:40;;;;;;;;;;;13.70;99.90;;;;;;4995951;28;19926;-79
2022/05/08 09:34:07;;;;;;;;;;;13.80;99.90;;;;;;4985538;28;19926;-79
2022/05/08 09:36:34;;;;;;;;;;;13.80;99.90;;;;;;4991714;28;20422;-80
2022/05/08 09:39:02;;;;;;;;;;;13.80;99.90;;;;;;4993139;28;19941;-79
2022/05/08 09:41:30;;;;;;;;;;;13.80;99.90;;;;;;4988847;28;19930;-79
2022/05/08 09:44:09;;;;;;;;;;;13.80;99.90;;;;;;4974235;28;19936;-79
2022/05/08 09:46:37;;;;;;;;;;;13.90;99.90;;;;;;4999930;28;19925;-79
2022/05/08 09:49:05;;;;;;;;;;;13.90;99.90;;;;;;4995229;28;19934;-79
2022/05/08 09:51:33;;;;;;;;;;;13.90;99.90;;;;;;4982707;28;20355;-78
2022/05/08 09:54:01;;;;;;;;;;;13.90;99.90;;;;;;4978143;28;19933;-79
2022/05/08 09:56:29;;;;;;;;;;;14.00;99.90;;;;;;5005265;28;19926;-78
2022/05/08 09:58:56;;;;;;;;;;;14.00;99.90;;;;;;4986625;28;20315;-79
2022/05/08 10:01:24;;;;;;;;;;;14.00;99.90;;;;;;5001253;28;20700;-78
2022/05/08 10:03:52;;;;;;;;;;;14.10;99.90;;;;;;4988399;28;19929;-79
2022/05/08 10:06:21;;;;;;;;;;;14.10;99.90;;;;;;4978965;28;20020;-78
2022/05/08 10:08:48;;;;;;;;;;;14.10;99.90;;;;;;4993706;28;20291;-78
2022/05/08 10:14:04;;;;;;;;;;;14.10;99.90;;;;;;4992580;28;20054;-79
2022/05/08 10:16:44;;;;;;;;;;;14.20;99.90;;;;;;4997395;28;20926;-79
2022/05/08 10:19:29;;;;;;;;;;;14.20;99.90;;;;;;5000638;28;20257;-78
2022/05/08 10:22:06;;;;;;;;;;;14.20;99.90;;;;;;5013198;28;19934;-78
2022/05/08 10:24:33;;;;;;;;;;;14.20;99.90;;;;;;5015809;28;19976;-78
2022/05/08 10:27:10;;;;;;;;;;;14.30;99.90;;;;;;5014657;28;19969;-79
2022/05/08 10:29:37;;;;;;;;;;;14.30;99.90;;;;;;5017685;28;20032;-78
2022/05/08 10:32:06;;;;;;;;;;;14.30;99.90;;;;;;5018485;28;19925;-78
2022/05/08 10:34:34;;;;;;;;;;;14.30;99.90;;;;;;5026668;28;19953;-78
2022/05/08 10:37:19;;;;;;;;;;;14.40;99.90;;;;;;5020316;28;20292;-79
2022/05/08 10:39:48;;;;;;;;;;;14.40;99.90;;;;;;5010933;28;19929;-79
2022/05/08 10:42:39;;;;;;;;;;;14.40;99.90;;;;;;4997229;28;19926;-79
2022/05/08 10:45:07;;;;;;;;;;;14.40;99.90;;;;;;5015203;28;19948;-79
2022/05/08 10:47:41;;;;;;;;;;;14.50;99.90;;;;;;5015423;28;19929;-79
2022/05/08 10:50:09;;;;;;;;;;;14.50;99.90;;;;;;4990674;28;19965;-78
2022/05/08 10:52:40;;;;;;;;;;;14.50;99.90;;;;;;5012816;28;19929;-78
2022/05/08 10:55:12;;;;;;;;;;;14.50;99.90;;;;;;5012215;28;19925;-79
2022/05/08 10:57:40;;;;;;;;;;;14.60;99.90;;;;;;5016299;28;19940;-79
2022/05/08 11:00:07;;;;;;;;;;;14.60;99.90;;;;;;5013383;28;20406;-79
2022/05/08 11:02:41;;;;;;;;;;;14.60;99.90;;;;;;5011519;28;19968;-78
2022/05/08 11:05:08;;;;;;;;;;;14.60;99.90;;;;;;5005235;28;19926;-78
2022/05/08 11:07:35;;;;;;;;;;;14.60;99.90;;;;;;5018707;28;20008;-78
2022/05/08 11:10:14;;;;;;;;;;;14.70;99.90;;;;;;5009389;28;19954;-79
2022/05/08 11:12:56;;;;;;;;;;;14.70;99.90;;;;;;5010671;28;19940;-79
2022/05/08 11:15:24;;;;;;;;;;;14.70;99.90;;;;;;4995121;28;19947;-79
2022/05/08 11:18:04;;;;;;;;;;;14.80;99.90;;;;;;5011388;28;19926;-79
2022/05/08 11:20:33;;;;;;;;;;;14.80;99.90;;;;;;5014244;28;20388;-78
2022/05/08 11:23:00;;;;;;;;;;;14.80;99.90;;;;;;5005134;28;19934;-78
2022/05/08 11:25:27;;;;;;;;;;;14.80;99.90;;;;;;5016628;28;19936;-79
2022/05/08 11:27:54;;;;;;;;;;;14.80;99.90;;;;;;4995677;28;19933;-78
2022/05/08 11:30:28;;;;;;;;;;;14.80;99.90;;;;;;4995806;28;19931;-79
2022/05/08 11:38:30;;;;;;;;;;;14.90;99.90;;;;;;4998966;28;19932;-78
2022/05/08 11:40:58;;;;;;;;;;;14.90;99.90;;;;;;5016077;28;19968;-79
2022/05/08 11:43:40;;;;;;;;;;;14.90;99.90;;;;;;5010988;28;19926;-79
2022/05/08 11:46:09;;;;;;;;;;;15.00;99.90;;;;;;5012680;28;19926;-79
2022/05/08 11:48:41;;;;;;;;;;;15.00;99.90;;;;;;5012657;28;20366;-79
2022/05/08 11:51:08;;;;;;;;;;;15.00;99.90;;;;;;5013330;28;19950;-79
2022/05/08 11:53:39;;;;;;;;;;;15.00;99.90;;;;;;4996136;28;19931;-78
2022/05/08 11:56:26;;;;;;;;;;;15.00;99.90;;;;;;5007411;28;19992;-78
2022/05/08 11:58:53;;;;;;;;;;;15.00;99.90;;;;;;5009975;28;20691;-79
2022/05/08 12:01:31;;;;;;;;;;;15.00;99.90;;;;;;5008941;28;20372;-79
2022/05/08 12:03:59;;;;;;;;;;;15.00;99.90;;;;;;5005029;28;19934;-79
2022/05/08 12:06:26;;;;;;;;;;;15.00;99.90;;;;;;5010053;28;19993;-78
2022/05/08 12:08:52;;;;;;;;;;;15.00;99.90;;;;;;5011725;28;19949;-78
2022/05/08 12:11:30;;;;;;;;;;;15.00;99.90;;;;;;4999989;28;19944;-79
2022/05/08 12:14:00;;;;;;;;;;;15.00;99.90;;;;;;5013317;28;20028;-79
2022/05/08 12:16:27;;;;;;;;;;;15.00;99.90;;;;;;4997495;28;19925;-78
2022/05/08 12:19:11;;;;;;;;;;;15.00;99.90;;;;;;5013873;28;20702;-79
2022/05/08 12:21:38;;;;;;;;;;;15.00;99.90;;;;;;5014556;28;19930;-78
2022/05/08 12:24:08;;;;;;;;;;;15.00;99.90;;;;;;5008652;28;20017;-78
2022/05/08 12:26:35;;;;;;;;;;;15.10;99.90;;;;;;4971477;28;19930;-78
2022/05/08 12:29:02;;;;;;;;;;;15.10;99.90;;;;;;5051290;23;19962;-80
2022/05/08 12:31:29;;;;;;;;;;;15.00;99.90;;;;;;4943416;28;20389;-79
2022/05/08 12:36:52;;;;;;;;;;;15.10;99.90;;;;;;5707274;23;19926;-82
2022/05/08 12:39:21;;;;;;;;;;;15.10;99.90;;;;;;4972058;28;19933;-81
2022/05/08 12:41:48;;;;;;;;;;;15.10;99.90;;;;;;4989271;28;19973;-81
2022/05/08 12:44:19;;;;;;;;;;;15.10;99.90;;;;;;4989324;28;19960;-81
2022/05/08 12:46:46;;;;;;;;;;;15.10;99.90;;;;;;4971497;28;20036;-81
2022/05/08 12:49:19;;;;;;;;;;;15.10;99.90;;;;;;4978073;28;19926;-81
2022/05/08 12:51:47;;;;;;;;;;;15.10;99.90;;;;;;4976632;28;20024;-80
2022/05/08 12:54:17;;;;;;;;;;;15.10;99.90;;;;;;4973149;28;19930;-80
2022/05/08 12:56:45;;;;;;;;;;;15.20;99.90;;;;;;4987621;28;20024;-82
2022/05/08 13:01:57;;;;;;;;;;;15.20;99.90;;;;;;4986131;28;19934;-80
2022/05/08 13:04:24;;;;;;;;;;;15.20;99.90;;;;;;4985116;28;19934;-79
2022/05/08 13:06:51;;;;;;;;;;;15.20;99.90;;;;;;4981963;28;19945;-79
2022/05/08 13:09:20;;;;;;;;;;;15.20;99.90;;;;;;4986179;28;20351;-79
2022/05/08 13:11:48;;;;;;;;;;;15.20;99.90;;;;;;4968915;28;19969;-80
2022/05/08 13:14:15;;;;;;;;;;;15.20;99.90;;;;;;4986095;28;19933;-80
2022/05/08 13:16:43;;;;;;;;;;;15.20;99.90;;;;;;4983384;28;19933;-79
2022/05/08 13:19:10;;;;;;;;;;;15.30;99.90;;;;;;4985018;28;20017;-80
2022/05/08 13:21:40;;;;;;;;;;;15.30;99.90;;;;;;4986806;28;19926;-80
2022/05/08 13:24:09;;;;;;;;;;;15.30;99.90;;;;;;4983052;28;19933;-80
2022/05/08 13:26:38;;;;;;;;;;;15.30;99.90;;;;;;4983166;28;19926;-80
2022/05/08 13:29:05;;;;;;;;;;;15.30;99.90;;;;;;4978453;28;19929;-79
2022/05/08 13:31:32;;;;;;;;;;;15.30;99.90;;;;;;4984514;28;20432;-80
2022/05/08 13:34:00;;;;;;;;;;;15.30;99.90;;;;;;4968561;28;20377;-82
2022/05/08 13:36:27;;;;;;;;;;;15.30;99.90;;;;;;4970326;28;19985;-82
2022/05/08 13:38:56;;;;;;;;;;;15.40;99.90;;;;;;4980710;28;20024;-83
2022/05/08 13:41:24;;;;;;;;;;;15.30;99.90;;;;;;4979019;28;19933;-83
2022/05/08 13:43:55;;;;;;;;;;;15.30;99.90;;;;;;5013786;28;19932;-82
2022/05/08 13:46:26;;;;;;;;;;;15.40;99.90;;;;;;4993759;28;19920;-82
2022/05/08 13:48:56;;;;;;;;;;;15.40;99.90;;;;;;5003244;28;19941;-81
2022/05/08 13:51:29;;;;;;;;;;;15.40;99.90;;;;;;5014577;28;19918;-81
2022/05/08 13:53:57;;;;;;;;;;;15.30;99.90;;;;;;5003761;28;20185;-81
2022/05/08 13:56:25;;;;;;;;;;;15.40;99.90;;;;;;5000201;28;20633;-81
2022/05/08 13:58:56;;;;;;;;;;;15.40;99.90;;;;;;5002321;28;19929;-81
2022/05/08 14:01:24;;;;;;;;;;;15.40;99.90;;;;;;5000737;28;19929;-83
2022/05/08 14:06:33;;;;;;;;;;;15.40;99.90;;;;;;4991062;28;19926;-83
2022/05/08 14:09:02;;;;;;;;;;;15.40;99.90;;;;;;4991695;28;19937;-81
2022/05/08 14:11:29;;;;;;;;;;;15.40;99.90;;;;;;4998767;28;19956;-80
2022/05/08 14:14:10;;;;;;;;;;;15.40;99.90;;;;;;4987229;28;20006;-80
2022/05/08 14:16:38;;;;;;;;;;;15.40;99.90;;;;;;4995329;28;19934;-82
2022/05/08 14:19:12;;;;;;;;;;;15.40;99.90;;;;;;4994949;28;19917;-81
2022/05/08 14:21:40;;;;;;;;;;;15.40;99.90;;;;;;4991965;28;19924;-80
2022/05/08 14:24:11;;;;;;;;;;;15.40;99.90;;;;;;5062033;23;19932;-81
2022/05/08 14:26:43;;;;;;;;;;;15.40;99.90;;;;;;5016642;28;19936;-80
2022/05/08 14:29:13;;;;;;;;;;;15.40;99.90;;;;;;5015087;28;19979;-77
2022/05/08 14:39:38;;;;;;;;;;;15.40;99.90;;;;;;5001103;28;19909;-81
2022/05/08 14:42:05;;;;;;;;;;;15.40;99.90;;;;;;5002894;28;19930;-79
2022/05/08 14:44:34;;;;;;;;;;;15.40;99.90;;;;;;4977342;28;19921;-78
2022/05/08 14:47:03;;;;;;;;;;;15.40;99.90;;;;;;4988671;28;19930;-77
2022/05/08 14:49:30;;;;;;;;;;;15.40;99.90;;;;;;4979930;28;19934;-79
2022/05/08 14:51:57;;;;;;;;;;;15.40;99.90;;;;;;4982342;28;19961;-79
2022/05/08 14:54:24;;;;;;;;;;;15.40;99.90;;;;;;4984319;28;20552;-78
2022/05/08 14:56:51;;;;;;;;;;;15.40;99.90;;;;;;4987988;28;19933;-79
2022/05/08 14:59:18;;;;;;;;;;;15.50;99.90;;;;;;4995674;28;20022;-80
2022/05/08 15:01:47;;;;;;;;;;;15.50;99.90;;;;;;4979647;28;19936;-79
2022/05/08 15:04:16;;;;;;;;;;;15.40;99.90;;;;;;4987833;28;19926;-79
2022/05/08 15:06:43;;;;;;;;;;;15.50;99.90;;;;;;4989012;28;20296;-79
2022/05/08 15:09:11;;;;;;;;;;;15.40;99.90;;;;;;4993837;28;19926;-79
2022/05/08 15:11:38;;;;;;;;;;;15.50;99.90;;;;;;4994637;28;20012;-79
2022/05/08 15:14:08;;;;;;;;;;;15.50;99.90;;;;;;4993720;28;19930;-79
2022/05/08 15:16:35;;;;;;;;;;;15.50;99.90;;;;;;4992624;28;19926;-79
2022/05/08 15:19:03;;;;;;;;;;;15.50;99.90;;;;;;4994670;28;19930;-79
2022/05/08 15:21:30;;;;;;;;;;;15.50;99.90;;;;;;4989638;28;19937;-79
2022/05/08 15:23:58;;;;;;;;;;;15.50;99.90;;;;;;4984216;28;19941;-79
2022/05/08 15:26:25;;;;;;;;;;;15.50;99.90;;;;;;4982815;28;19926;-79
2022/05/08 15:28:52;;;;;;;;;;;15.50;99.90;;;;;;4976718;28;20404;-78
2022/05/08 15:31:20;;;;;;;;;;;15.50;99.90;;;;;;4969126;28;19945;-80
2022/05/08 15:33:47;;;;;;;;;;;15.50;99.90;;;;;;4989826;28;19929;-79
2022/05/08 15:36:15;;;;;;;;;;;15.50;99.90;;;;;;4988277;28;20017;-79
2022/05/08 15:38:42;;;;;;;;;;;15.50;99.90;;;;;;5001662;28;19937;-79
2022/05/08 15:41:09;;;;;;;;;;;15.50;99.90;;;;;;5007194;28;19930;-79
2022/05/08 15:43:37;;;;;;;;;;;15.50;99.90;;;;;;4991816;28;19934;-79
2022/05/08 15:46:04;;;;;;;;;;;15.50;99.90;;;;;;4988066;28;19940;-79
2022/05/08 15:48:32;;;;;;;;;;;15.50;99.90;;;;;;5011963;28;19980;-79
2022/05/08 15:51:00;;;;;;;;;;;15.50;99.90;;;;;;5012036;28;19932;-79
2022/05/08 15:53:31;;;;;;;;;;;15.50;99.90;;;;;;4992370;28;20399;-79
2022/05/08 15:56:03;;;;;;;;;;;15.50;99.90;;;;;;5005956;28;19930;-78
2022/05/08 15:58:31;;;;;;;;;;;15.50;99.90;;;;;;5003902;28;19992;-80